Terminal Aerodrome Forecast
Issued by NWS

Home | Current Version | Previous Version | Text Only | Print | Product List | Glossary On
Versions: 1 2 3 4 5 6 7 8 9 10 11 12 13
000
FTUS44 KEPZ 291700 RRA
TAFTCS
TAF
KTCS 291746Z 2918/3018 18010KT P6SM FEW080 SCT250
     FM292200 21010KT P6SM VCTS SCT070CB SCT250
     FM300500 30007KT P6SM FEW070 SCT250=

USA.gov is the U.S. government's official web portal to all federal, state and local government web resources and services.